sensor_id;sensor_type;location;lat;lon;timestamp;temperature;humidity
55369;DHT22;41247;49.736;8.752;2022-10-16T00:00:30;14.40;99.90
55369;DHT22;41247;49.736;8.752;2022-10-16T00:04:11;14.30;99.90
55369;DHT22;41247;49.736;8.752;2022-10-16T00:07:52;14.20;99.90
55369;DHT22;41247;49.736;8.752;2022-10-16T00:11:35;14.00;99.90
55369;DHT22;41247;49.736;8.752;2022-10-16T00:15:17;13.90;99.90
55369;DHT22;41247;49.736;8.752;2022-10-16T00:18:58;13.90;99.90
55369;DHT22;41247;49.736;8.752;2022-10-16T00:22:39;13.80;99.90
55369;DHT22;41247;49.736;8.752;2022-10-16T00:26:19;13.80;99.90
55369;DHT22;41247;49.736;8.752;2022-10-16T00:30:00;13.70;99.90
55369;DHT22;41247;49.736;8.752;2022-10-16T00:33:41;13.70;99.90
55369;DHT22;41247;49.736;8.752;2022-10-16T00:37:22;13.60;99.90
55369;DHT22;41247;49.736;8.752;2022-10-16T00:41:04;13.60;99.90
55369;DHT22;41247;49.736;8.752;2022-10-16T00:44:55;13.60;99.90
55369;DHT22;41247;49.736;8.752;2022-10-16T00:48:36;13.70;99.90
55369;DHT22;41247;49.736;8.752;2022-10-16T00:52:17;13.70;99.90
55369;DHT22;41247;49.736;8.752;2022-10-16T00:55:59;13.80;99.90
55369;DHT22;41247;49.736;8.752;2022-10-16T00:59:41;13.80;99.90
55369;DHT22;41247;49.736;8.752;2022-10-16T01:07:20;13.80;99.90
55369;DHT22;41247;49.736;8.752;2022-10-16T01:11:25;13.80;99.90
55369;DHT22;41247;49.736;8.752;2022-10-16T01:15:27;13.80;99.90
55369;DHT22;41247;49.736;8.752;2022-10-16T01:19:22;13.90;99.90
55369;DHT22;41247;49.736;8.752;2022-10-16T01:27:30;13.90;99.90
55369;DHT22;41247;49.736;8.752;2022-10-16T01:31:18;13.90;99.90
55369;DHT22;41247;49.736;8.752;2022-10-16T01:35:16;14.00;99.90
55369;DHT22;41247;49.736;8.752;2022-10-16T01:39:01;14.00;99.90
55369;DHT22;41247;49.736;8.752;2022-10-16T01:42:46;14.00;99.90
55369;DHT22;41247;49.736;8.752;2022-10-16T01:46:30;14.00;99.90
55369;DHT22;41247;49.736;8.752;2022-10-16T01:50:12;14.00;99.90
55369;DHT22;41247;49.736;8.752;2022-10-16T01:53:56;14.00;99.90
55369;DHT22;41247;49.736;8.752;2022-10-16T01:57:41;14.10;99.90
55369;DHT22;41247;49.736;8.752;2022-10-16T02:01:26;14.20;99.90
55369;DHT22;41247;49.736;8.752;2022-10-16T02:05:12;14.20;99.90
55369;DHT22;41247;49.736;8.752;2022-10-16T02:08:58;14.30;99.90
55369;DHT22;41247;49.736;8.752;2022-10-16T02:12:44;14.40;99.90
55369;DHT22;41247;49.736;8.752;2022-10-16T02:20:26;14.40;99.90
55369;DHT22;41247;49.736;8.752;2022-10-16T02:24:32;14.40;99.90
55369;DHT22;41247;49.736;8.752;2022-10-16T02:28:22;14.40;99.90
55369;DHT22;41247;49.736;8.752;2022-10-16T02:32:05;14.40;99.90
55369;DHT22;41247;49.736;8.752;2022-10-16T02:35:48;14.40;99.90
55369;DHT22;41247;49.736;8.752;2022-10-16T02:39:29;14.40;99.90
55369;DHT22;41247;49.736;8.752;2022-10-16T02:43:10;14.40;99.90
55369;DHT22;41247;49.736;8.752;2022-10-16T02:46:52;14.40;99.90
55369;DHT22;41247;49.736;8.752;2022-10-16T02:50:33;14.50;99.90
55369;DHT22;41247;49.736;8.752;2022-10-16T02:54:36;14.40;99.90
55369;DHT22;41247;49.736;8.752;2022-10-16T02:59:42;14.50;99.90
55369;DHT22;41247;49.736;8.752;2022-10-16T03:08:43;14.50;99.90
55369;DHT22;41247;49.736;8.752;2022-10-16T03:12:24;14.50;99.90
55369;DHT22;41247;49.736;8.752;2022-10-16T03:16:04;14.60;99.90
55369;DHT22;41247;49.736;8.752;2022-10-16T03:20:08;14.60;99.90
55369;DHT22;41247;49.736;8.752;2022-10-16T03:23:49;14.60;99.90
55369;DHT22;41247;49.736;8.752;2022-10-16T03:27:55;14.70;99.90
55369;DHT22;41247;49.736;8.752;2022-10-16T03:37:21;14.70;99.90
55369;DHT22;41247;49.736;8.752;2022-10-16T03:41:01;14.70;99.90
55369;DHT22;41247;49.736;8.752;2022-10-16T03:44:42;14.70;99.90
55369;DHT22;41247;49.736;8.752;2022-10-16T03:48:29;14.70;99.90
55369;DHT22;41247;49.736;8.752;2022-10-16T03:52:10;14.70;99.90
55369;DHT22;41247;49.736;8.752;2022-10-16T03:55:50;14.70;99.90
55369;DHT22;41247;49.736;8.752;2022-10-16T03:59:31;14.70;99.90
55369;DHT22;41247;49.736;8.752;2022-10-16T04:03:12;14.70;99.90
55369;DHT22;41247;49.736;8.752;2022-10-16T04:06:52;14.70;99.90
55369;DHT22;41247;49.736;8.752;2022-10-16T04:10:33;14.70;99.90
55369;DHT22;41247;49.736;8.752;2022-10-16T04:14:13;14.80;99.90
55369;DHT22;41247;49.736;8.752;2022-10-16T04:17:54;14.70;99.90
55369;DHT22;41247;49.736;8.752;2022-10-16T04:21:35;14.80;99.90
55369;DHT22;41247;49.736;8.752;2022-10-16T04:25:15;14.80;99.90
55369;DHT22;41247;49.736;8.752;2022-10-16T04:28:56;14.80;99.90
55369;DHT22;41247;49.736;8.752;2022-10-16T04:32:37;14.70;99.90
55369;DHT22;41247;49.736;8.752;2022-10-16T04:36:17;14.70;99.90
55369;DHT22;41247;49.736;8.752;2022-10-16T04:39:58;14.80;99.90
55369;DHT22;41247;49.736;8.752;2022-10-16T04:43:38;14.80;99.90
55369;DHT22;41247;49.736;8.752;2022-10-16T04:47:19;14.80;99.90
55369;DHT22;41247;49.736;8.752;2022-10-16T04:51:00;14.80;99.90
55369;DHT22;41247;49.736;8.752;2022-10-16T04:54:43;14.80;99.90
55369;DHT22;41247;49.736;8.752;2022-10-16T04:58:23;14.80;99.90
55369;DHT22;41247;49.736;8.752;2022-10-16T05:02:04;14.90;99.90
55369;DHT22;41247;49.736;8.752;2022-10-16T05:05:45;14.90;99.90
55369;DHT22;41247;49.736;8.752;2022-10-16T05:09:26;14.90;99.90
55369;DHT22;41247;49.736;8.752;2022-10-16T05:13:07;14.90;99.90
55369;DHT22;41247;49.736;8.752;2022-10-16T05:16:47;14.90;99.90
55369;DHT22;41247;49.736;8.752;2022-10-16T05:20:28;14.80;99.90
55369;DHT22;41247;49.736;8.752;2022-10-16T05:24:24;14.80;99.90
55369;DHT22;41247;49.736;8.752;2022-10-16T05:33:10;14.80;99.90
55369;DHT22;41247;49.736;8.752;2022-10-16T05:38:05;14.80;99.90
55369;DHT22;41247;49.736;8.752;2022-10-16T05:47:21;14.90;99.90
55369;DHT22;41247;49.736;8.752;2022-10-16T05:55:39;14.90;99.90
55369;DHT22;41247;49.736;8.752;2022-10-16T05:59:52;14.90;99.90
55369;DHT22;41247;49.736;8.752;2022-10-16T06:04:01;15.00;99.90
55369;DHT22;41247;49.736;8.752;2022-10-16T06:08:00;15.00;99.90
55369;DHT22;41247;49.736;8.752;2022-10-16T06:12:08;15.00;99.90
55369;DHT22;41247;49.736;8.752;2022-10-16T06:16:20;15.00;99.90
55369;DHT22;41247;49.736;8.752;2022-10-16T06:20:07;15.00;99.90
55369;DHT22;41247;49.736;8.752;2022-10-16T06:24:00;15.00;99.90
55369;DHT22;41247;49.736;8.752;2022-10-16T06:27:47;15.00;99.90
55369;DHT22;41247;49.736;8.752;2022-10-16T06:31:28;15.00;99.90
55369;DHT22;41247;49.736;8.752;2022-10-16T06:35:30;14.90;99.90
55369;DHT22;41247;49.736;8.752;2022-10-16T06:43:55;14.90;99.90
55369;DHT22;41247;49.736;8.752;2022-10-16T06:47:36;15.00;99.90
55369;DHT22;41247;49.736;8.752;2022-10-16T06:51:21;15.00;99.90
55369;DHT22;41247;49.736;8.752;2022-10-16T06:55:03;15.00;99.90
55369;DHT22;41247;49.736;8.752;2022-10-16T06:58:44;15.10;99.90
55369;DHT22;41247;49.736;8.752;2022-10-16T07:02:25;15.10;99.90
55369;DHT22;41247;49.736;8.752;2022-10-16T07:06:06;15.20;99.90
55369;DHT22;41247;49.736;8.752;2022-10-16T07:09:48;15.40;99.90
55369;DHT22;41247;49.736;8.752;2022-10-16T07:13:29;15.40;99.90
55369;DHT22;41247;49.736;8.752;2022-10-16T07:17:09;15.50;99.90
55369;DHT22;41247;49.736;8.752;2022-10-16T07:20:50;15.50;99.90
55369;DHT22;41247;49.736;8.752;2022-10-16T07:24:30;15.50;99.90
55369;DHT22;41247;49.736;8.752;2022-10-16T07:28:11;15.50;99.90
55369;DHT22;41247;49.736;8.752;2022-10-16T07:31:52;15.50;99.90
55369;DHT22;41247;49.736;8.752;2022-10-16T07:35:32;15.50;99.90
55369;DHT22;41247;49.736;8.752;2022-10-16T07:39:13;15.50;99.90
55369;DHT22;41247;49.736;8.752;2022-10-16T07:42:53;15.60;99.90
55369;DHT22;41247;49.736;8.752;2022-10-16T07:46:35;15.70;99.90
55369;DHT22;41247;49.736;8.752;2022-10-16T07:50:15;15.70;99.90
55369;DHT22;41247;49.736;8.752;2022-10-16T07:53:56;15.70;99.90
55369;DHT22;41247;49.736;8.752;2022-10-16T07:57:37;15.70;99.90
55369;DHT22;41247;49.736;8.752;2022-10-16T08:01:18;15.70;99.90
55369;DHT22;41247;49.736;8.752;2022-10-16T08:04:59;15.70;99.90
55369;DHT22;41247;49.736;8.752;2022-10-16T08:08:40;15.70;99.90
55369;DHT22;41247;49.736;8.752;2022-10-16T08:12:20;15.60;99.90
55369;DHT22;41247;49.736;8.752;2022-10-16T08:16:02;15.70;99.90
55369;DHT22;41247;49.736;8.752;2022-10-16T08:19:46;15.70;99.90
55369;DHT22;41247;49.736;8.752;2022-10-16T08:23:28;15.70;99.90
55369;DHT22;41247;49.736;8.752;2022-10-16T08:27:08;15.70;99.90
55369;DHT22;41247;49.736;8.752;2022-10-16T08:30:49;15.70;99.90
55369;DHT22;41247;49.736;8.752;2022-10-16T08:34:29;15.60;99.90
55369;DHT22;41247;49.736;8.752;2022-10-16T08:38:10;15.50;99.90
55369;DHT22;41247;49.736;8.752;2022-10-16T08:51:02;15.20;99.90
55369;DHT22;41247;49.736;8.752;2022-10-16T08:54:49;15.10;99.90
55369;DHT22;41247;49.736;8.752;2022-10-16T08:58:36;15.00;99.90
55369;DHT22;41247;49.736;8.752;2022-10-16T09:26:45;15.20;99.90
55369;DHT22;41247;49.736;8.752;2022-10-16T09:30:29;15.30;99.90
55369;DHT22;41247;49.736;8.752;2022-10-16T09:34:30;15.40;99.90
55369;DHT22;41247;49.736;8.752;2022-10-16T09:38:26;15.50;99.90
55369;DHT22;41247;49.736;8.752;2022-10-16T09:42:15;15.50;99.90
55369;DHT22;41247;49.736;8.752;2022-10-16T09:46:33;15.60;99.90
55369;DHT22;41247;49.736;8.752;2022-10-16T09:50:27;15.60;99.90
55369;DHT22;41247;49.736;8.752;2022-10-16T09:57:53;15.50;99.90
55369;DHT22;41247;49.736;8.752;2022-10-16T10:05:26;15.60;99.90
55369;DHT22;41247;49.736;8.752;2022-10-16T10:09:18;15.60;99.90
55369;DHT22;41247;49.736;8.752;2022-10-16T10:13:00;15.80;99.90
55369;DHT22;41247;49.736;8.752;2022-10-16T10:16:41;15.90;99.90
55369;DHT22;41247;49.736;8.752;2022-10-16T10:20:30;15.90;99.90
55369;DHT22;41247;49.736;8.752;2022-10-16T10:24:14;16.00;99.90
55369;DHT22;41247;49.736;8.752;2022-10-16T10:41:22;16.80;99.90
55369;DHT22;41247;49.736;8.752;2022-10-16T10:49:25;17.10;99.90
55369;DHT22;41247;49.736;8.752;2022-10-16T11:02:09;17.40;99.90
55369;DHT22;41247;49.736;8.752;2022-10-16T11:06:11;17.60;99.90
55369;DHT22;41247;49.736;8.752;2022-10-16T11:09:57;17.80;99.90
55369;DHT22;41247;49.736;8.752;2022-10-16T11:13:56;17.90;99.90
55369;DHT22;41247;49.736;8.752;2022-10-16T11:17:47;17.90;99.90
55369;DHT22;41247;49.736;8.752;2022-10-16T11:21:39;17.80;99.90
55369;DHT22;41247;49.736;8.752;2022-10-16T11:25:30;17.90;99.90
55369;DHT22;41247;49.736;8.752;2022-10-16T11:29:17;18.20;99.90
55369;DHT22;41247;49.736;8.752;2022-10-16T11:33:29;18.40;99.90
55369;DHT22;41247;49.736;8.752;2022-10-16T11:37:21;18.60;99.90
55369;DHT22;41247;49.736;8.752;2022-10-16T11:45:45;19.00;99.90
55369;DHT22;41247;49.736;8.752;2022-10-16T11:49:31;19.20;99.90
55369;DHT22;41247;49.736;8.752;2022-10-16T11:57:35;19.70;99.90
55369;DHT22;41247;49.736;8.752;2022-10-16T12:01:37;19.50;99.90
55369;DHT22;41247;49.736;8.752;2022-10-16T12:09:41;19.30;99.90
55369;DHT22;41247;49.736;8.752;2022-10-16T12:13:35;19.30;99.90
55369;DHT22;41247;49.736;8.752;2022-10-16T12:21:00;19.10;99.90
55369;DHT22;41247;49.736;8.752;2022-10-16T12:24:44;19.00;99.90
55369;DHT22;41247;49.736;8.752;2022-10-16T12:28:28;19.10;99.90
55369;DHT22;41247;49.736;8.752;2022-10-16T12:32:36;19.20;99.90
55369;DHT22;41247;49.736;8.752;2022-10-16T12:36:38;19.30;99.90
55369;DHT22;41247;49.736;8.752;2022-10-16T12:44:24;19.10;99.90
55369;DHT22;41247;49.736;8.752;2022-10-16T12:48:19;19.20;99.90
55369;DHT22;41247;49.736;8.752;2022-10-16T12:52:01;19.50;99.90
55369;DHT22;41247;49.736;8.752;2022-10-16T13:00:39;20.10;99.90
55369;DHT22;41247;49.736;8.752;2022-10-16T13:09:02;19.70;99.90
55369;DHT22;41247;49.736;8.752;2022-10-16T13:13:10;19.60;99.90
55369;DHT22;41247;49.736;8.752;2022-10-16T13:26:18;19.10;99.90
55369;DHT22;41247;49.736;8.752;2022-10-16T13:34:44;19.10;99.90
55369;DHT22;41247;49.736;8.752;2022-10-16T13:38:28;19.00;99.90
55369;DHT22;41247;49.736;8.752;2022-10-16T13:42:14;18.90;99.90
55369;DHT22;41247;49.736;8.752;2022-10-16T13:46:03;18.80;99.90
55369;DHT22;41247;49.736;8.752;2022-10-16T13:49:45;18.70;99.90
55369;DHT22;41247;49.736;8.752;2022-10-16T13:53:26;18.70;99.90
55369;DHT22;41247;49.736;8.752;2022-10-16T13:57:07;18.60;99.90
55369;DHT22;41247;49.736;8.752;2022-10-16T14:00:59;18.50;99.90
55369;DHT22;41247;49.736;8.752;2022-10-16T14:04:45;18.40;99.90
55369;DHT22;41247;49.736;8.752;2022-10-16T14:08:28;18.20;99.90
55369;DHT22;41247;49.736;8.752;2022-10-16T14:12:11;18.10;99.90
55369;DHT22;41247;49.736;8.752;2022-10-16T14:15:52;18.10;99.90
55369;DHT22;41247;49.736;8.752;2022-10-16T14:19:33;18.10;99.90
55369;DHT22;41247;49.736;8.752;2022-10-16T14:23:29;18.20;99.90
55369;DHT22;41247;49.736;8.752;2022-10-16T14:35:00;18.20;99.90
55369;DHT22;41247;49.736;8.752;2022-10-16T14:38:43;18.20;99.90
55369;DHT22;41247;49.736;8.752;2022-10-16T14:42:29;18.10;99.90
55369;DHT22;41247;49.736;8.752;2022-10-16T14:46:14;18.10;99.90
55369;DHT22;41247;49.736;8.752;2022-10-16T14:49:58;18.10;99.90
55369;DHT22;41247;49.736;8.752;2022-10-16T14:53:38;18.00;99.90
55369;DHT22;41247;49.736;8.752;2022-10-16T14:57:22;18.00;99.90
55369;DHT22;41247;49.736;8.752;2022-10-16T15:01:04;17.90;99.90
55369;DHT22;41247;49.736;8.752;2022-10-16T15:04:45;17.90;99.90
55369;DHT22;41247;49.736;8.752;2022-10-16T15:08:25;17.90;99.90
55369;DHT22;41247;49.736;8.752;2022-10-16T15:12:06;17.80;99.90
55369;DHT22;41247;49.736;8.752;2022-10-16T15:15:47;17.70;99.90
55369;DHT22;41247;49.736;8.752;2022-10-16T15:19:28;17.70;99.90
55369;DHT22;41247;49.736;8.752;2022-10-16T15:23:20;17.70;99.90
55369;DHT22;41247;49.736;8.752;2022-10-16T15:27:03;17.80;99.90
55369;DHT22;41247;49.736;8.752;2022-10-16T15:30:45;17.80;99.90
55369;DHT22;41247;49.736;8.752;2022-10-16T15:34:26;17.80;99.90
55369;DHT22;41247;49.736;8.752;2022-10-16T15:38:09;17.90;99.90
55369;DHT22;41247;49.736;8.752;2022-10-16T15:41:53;17.90;99.90
55369;DHT22;41247;49.736;8.752;2022-10-16T15:45:34;17.90;99.90
55369;DHT22;41247;49.736;8.752;2022-10-16T15:49:15;17.80;99.90
55369;DHT22;41247;49.736;8.752;2022-10-16T15:52:55;17.80;99.90
55369;DHT22;41247;49.736;8.752;2022-10-16T15:56:36;17.70;99.90
55369;DHT22;41247;49.736;8.752;2022-10-16T16:00:18;17.50;99.90
55369;DHT22;41247;49.736;8.752;2022-10-16T16:04:00;17.50;99.90
55369;DHT22;41247;49.736;8.752;2022-10-16T16:07:40;17.30;99.90
55369;DHT22;41247;49.736;8.752;2022-10-16T16:11:21;17.20;99.90
55369;DHT22;41247;49.736;8.752;2022-10-16T16:15:02;17.10;99.90
55369;DHT22;41247;49.736;8.752;2022-10-16T16:18:46;17.00;99.90
55369;DHT22;41247;49.736;8.752;2022-10-16T16:22:27;17.00;99.90
55369;DHT22;41247;49.736;8.752;2022-10-16T16:26:22;16.90;99.90
55369;DHT22;41247;49.736;8.752;2022-10-16T16:30:10;16.90;99.90
55369;DHT22;41247;49.736;8.752;2022-10-16T16:33:51;16.80;99.90
55369;DHT22;41247;49.736;8.752;2022-10-16T16:37:32;16.70;99.90
55369;DHT22;41247;49.736;8.752;2022-10-16T16:41:13;16.70;99.90
55369;DHT22;41247;49.736;8.752;2022-10-16T16:45:04;16.70;99.90
55369;DHT22;41247;49.736;8.752;2022-10-16T16:48:45;16.60;99.90
55369;DHT22;41247;49.736;8.752;2022-10-16T16:52:28;16.60;99.90
55369;DHT22;41247;49.736;8.752;2022-10-16T16:56:09;16.60;99.90
55369;DHT22;41247;49.736;8.752;2022-10-16T16:59:50;16.50;99.90
55369;DHT22;41247;49.736;8.752;2022-10-16T17:03:33;16.60;99.90
55369;DHT22;41247;49.736;8.752;2022-10-16T17:07:14;16.60;99.90
55369;DHT22;41247;49.736;8.752;2022-10-16T17:10:55;16.50;99.90
55369;DHT22;41247;49.736;8.752;2022-10-16T17:14:36;16.50;99.90
55369;DHT22;41247;49.736;8.752;2022-10-16T17:18:17;16.50;99.90
55369;DHT22;41247;49.736;8.752;2022-10-16T17:21:58;16.50;99.90
55369;DHT22;41247;49.736;8.752;2022-10-16T17:25:39;16.50;99.90
55369;DHT22;41247;49.736;8.752;2022-10-16T17:29:20;16.50;99.90
55369;DHT22;41247;49.736;8.752;2022-10-16T17:33:01;16.50;99.90
55369;DHT22;41247;49.736;8.752;2022-10-16T17:36:42;16.50;99.90
55369;DHT22;41247;49.736;8.752;2022-10-16T17:40:23;16.50;99.90
55369;DHT22;41247;49.736;8.752;2022-10-16T17:44:06;16.50;99.90
55369;DHT22;41247;49.736;8.752;2022-10-16T17:47:46;16.40;99.90
55369;DHT22;41247;49.736;8.752;2022-10-16T17:51:29;16.30;99.90
55369;DHT22;41247;49.736;8.752;2022-10-16T17:55:11;16.30;99.90
55369;DHT22;41247;49.736;8.752;2022-10-16T17:58:54;16.30;99.90
55369;DHT22;41247;49.736;8.752;2022-10-16T18:02:35;16.30;99.90
55369;DHT22;41247;49.736;8.752;2022-10-16T18:06:16;16.40;99.90
55369;DHT22;41247;49.736;8.752;2022-10-16T18:10:00;16.40;99.90
55369;DHT22;41247;49.736;8.752;2022-10-16T18:13:41;16.50;99.90
55369;DHT22;41247;49.736;8.752;2022-10-16T18:17:22;16.40;99.90
55369;DHT22;41247;49.736;8.752;2022-10-16T18:21:06;16.40;99.90
55369;DHT22;41247;49.736;8.752;2022-10-16T18:24:48;16.40;99.90
55369;DHT22;41247;49.736;8.752;2022-10-16T18:28:29;16.30;99.90
55369;DHT22;41247;49.736;8.752;2022-10-16T18:32:09;16.30;99.90
55369;DHT22;41247;49.736;8.752;2022-10-16T18:35:50;16.40;99.90
55369;DHT22;41247;49.736;8.752;2022-10-16T18:39:31;16.50;99.90
55369;DHT22;41247;49.736;8.752;2022-10-16T18:43:12;16.60;99.90
55369;DHT22;41247;49.736;8.752;2022-10-16T18:46:53;16.80;99.90
55369;DHT22;41247;49.736;8.752;2022-10-16T18:50:33;16.80;99.90
55369;DHT22;41247;49.736;8.752;2022-10-16T18:54:14;16.90;99.90
55369;DHT22;41247;49.736;8.752;2022-10-16T18:57:55;16.90;99.90
55369;DHT22;41247;49.736;8.752;2022-10-16T19:01:36;16.80;99.90
55369;DHT22;41247;49.736;8.752;2022-10-16T19:05:17;16.70;99.90
55369;DHT22;41247;49.736;8.752;2022-10-16T19:08:57;16.60;99.90
55369;DHT22;41247;49.736;8.752;2022-10-16T19:12:38;16.50;99.90
55369;DHT22;41247;49.736;8.752;2022-10-16T19:16:27;16.30;99.90
55369;DHT22;41247;49.736;8.752;2022-10-16T19:20:12;16.20;99.90
55369;DHT22;41247;49.736;8.752;2022-10-16T19:23:55;16.20;99.90
55369;DHT22;41247;49.736;8.752;2022-10-16T19:27:37;16.40;99.90
55369;DHT22;41247;49.736;8.752;2022-10-16T19:31:22;16.60;99.90
55369;DHT22;41247;49.736;8.752;2022-10-16T19:35:02;16.80;99.90
55369;DHT22;41247;49.736;8.752;2022-10-16T19:38:45;16.90;99.90
55369;DHT22;41247;49.736;8.752;2022-10-16T19:42:26;17.10;99.90
55369;DHT22;41247;49.736;8.752;2022-10-16T19:46:15;17.20;99.90
55369;DHT22;41247;49.736;8.752;2022-10-16T19:50:00;17.20;99.90
55369;DHT22;41247;49.736;8.752;2022-10-16T19:53:41;17.30;99.90
55369;DHT22;41247;49.736;8.752;2022-10-16T19:57:25;17.50;99.90
55369;DHT22;41247;49.736;8.752;2022-10-16T20:01:05;17.50;99.90
55369;DHT22;41247;49.736;8.752;2022-10-16T20:04:46;17.50;99.90
55369;DHT22;41247;49.736;8.752;2022-10-16T20:08:26;17.50;99.90
55369;DHT22;41247;49.736;8.752;2022-10-16T20:12:07;17.50;99.90
55369;DHT22;41247;49.736;8.752;2022-10-16T20:15:48;17.40;99.90
55369;DHT22;41247;49.736;8.752;2022-10-16T20:19:29;17.40;99.90
55369;DHT22;41247;49.736;8.752;2022-10-16T20:23:11;17.40;99.90
55369;DHT22;41247;49.736;8.752;2022-10-16T20:26:51;17.50;99.90
55369;DHT22;41247;49.736;8.752;2022-10-16T20:30:33;17.50;99.90
55369;DHT22;41247;49.736;8.752;2022-10-16T20:34:14;17.50;99.90
55369;DHT22;41247;49.736;8.752;2022-10-16T20:37:55;17.50;99.90
55369;DHT22;41247;49.736;8.752;2022-10-16T20:41:36;17.40;99.90
55369;DHT22;41247;49.736;8.752;2022-10-16T20:45:16;17.40;99.90
55369;DHT22;41247;49.736;8.752;2022-10-16T20:48:57;17.50;99.90
55369;DHT22;41247;49.736;8.752;2022-10-16T20:52:38;17.50;99.90
55369;DHT22;41247;49.736;8.752;2022-10-16T20:56:19;17.60;99.90
55369;DHT22;41247;49.736;8.752;2022-10-16T20:59:59;17.60;99.90
55369;DHT22;41247;49.736;8.752;2022-10-16T21:03:40;17.60;99.90
55369;DHT22;41247;49.736;8.752;2022-10-16T21:07:22;17.60;99.90
55369;DHT22;41247;49.736;8.752;2022-10-16T21:11:21;17.70;99.90
55369;DHT22;41247;49.736;8.752;2022-10-16T21:15:04;17.70;99.90
55369;DHT22;41247;49.736;8.752;2022-10-16T21:18:45;17.80;99.90
55369;DHT22;41247;49.736;8.752;2022-10-16T21:22:29;17.80;99.90
55369;DHT22;41247;49.736;8.752;2022-10-16T21:26:10;17.70;99.90
55369;DHT22;41247;49.736;8.752;2022-10-16T21:29:54;17.70;99.90
55369;DHT22;41247;49.736;8.752;2022-10-16T21:33:34;17.70;99.90
55369;DHT22;41247;49.736;8.752;2022-10-16T21:37:15;17.70;99.90
55369;DHT22;41247;49.736;8.752;2022-10-16T21:40:56;17.70;99.90
55369;DHT22;41247;49.736;8.752;2022-10-16T21:44:36;17.70;99.90
55369;DHT22;41247;49.736;8.752;2022-10-16T21:48:17;17.60;99.90
55369;DHT22;41247;49.736;8.752;2022-10-16T21:51:57;17.60;99.90
55369;DHT22;41247;49.736;8.752;2022-10-16T21:55:38;17.60;99.90
55369;DHT22;41247;49.736;8.752;2022-10-16T21:59:19;17.60;99.90
55369;DHT22;41247;49.736;8.752;2022-10-16T22:02:59;17.50;99.90
55369;DHT22;41247;49.736;8.752;2022-10-16T22:06:40;17.50;99.90
55369;DHT22;41247;49.736;8.752;2022-10-16T22:10:21;17.50;99.90
55369;DHT22;41247;49.736;8.752;2022-10-16T22:14:14;17.50;99.90
55369;DHT22;41247;49.736;8.752;2022-10-16T22:17:58;17.40;99.90
55369;DHT22;41247;49.736;8.752;2022-10-16T22:21:40;17.50;99.90
55369;DHT22;41247;49.736;8.752;2022-10-16T22:25:22;17.40;99.90
55369;DHT22;41247;49.736;8.752;2022-10-16T22:29:03;17.40;99.90
55369;DHT22;41247;49.736;8.752;2022-10-16T22:32:44;17.40;99.90
55369;DHT22;41247;49.736;8.752;2022-10-16T22:36:25;17.40;99.90
55369;DHT22;41247;49.736;8.752;2022-10-16T22:40:06;17.50;99.90
55369;DHT22;41247;49.736;8.752;2022-10-16T22:43:48;17.50;99.90
55369;DHT22;41247;49.736;8.752;2022-10-16T22:47:29;17.50;99.90
55369;DHT22;41247;49.736;8.752;2022-10-16T22:51:10;17.70;99.90
55369;DHT22;41247;49.736;8.752;2022-10-16T22:54:51;17.60;99.90
55369;DHT22;41247;49.736;8.752;2022-10-16T22:58:32;17.60;99.90
55369;DHT22;41247;49.736;8.752;2022-10-16T23:02:13;17.60;99.90
55369;DHT22;41247;49.736;8.752;2022-10-16T23:05:53;17.60;99.90
55369;DHT22;41247;49.736;8.752;2022-10-16T23:09:34;17.50;99.90
55369;DHT22;41247;49.736;8.752;2022-10-16T23:13:15;17.50;99.90
55369;DHT22;41247;49.736;8.752;2022-10-16T23:16:55;17.50;99.90
55369;DHT22;41247;49.736;8.752;2022-10-16T23:20:40;17.50;99.90
55369;DHT22;41247;49.736;8.752;2022-10-16T23:24:20;17.50;99.90
55369;DHT22;41247;49.736;8.752;2022-10-16T23:28:01;17.50;99.90
55369;DHT22;41247;49.736;8.752;2022-10-16T23:31:42;17.50;99.90
55369;DHT22;41247;49.736;8.752;2022-10-16T23:35:22;17.50;99.90
55369;DHT22;41247;49.736;8.752;2022-10-16T23:39:03;17.40;99.90
55369;DHT22;41247;49.736;8.752;2022-10-16T23:42:44;17.40;99.90
55369;DHT22;41247;49.736;8.752;2022-10-16T23:46:24;17.40;99.90
55369;DHT22;41247;49.736;8.752;2022-10-16T23:50:05;17.40;99.90
55369;DHT22;41247;49.736;8.752;2022-10-16T23:53:47;17.40;99.90
55369;DHT22;41247;49.736;8.752;2022-10-16T23:57:27;17.50;99.90
